createdAt,value
2018-08-24T00:01:16.929Z,50.80
2018-08-24T00:06:20.157Z,50.80
2018-08-24T00:11:23.352Z,50.80
2018-08-24T00:16:31.863Z,50.80
2018-08-24T00:21:35.128Z,50.80
2018-08-24T00:26:38.356Z,50.90
2018-08-24T00:31:41.612Z,51.50
2018-08-24T00:36:44.800Z,51.00
2018-08-24T00:41:48.005Z,51.00
2018-08-24T00:46:51.203Z,51.00
2018-08-24T00:51:54.424Z,51.10
2018-08-24T00:56:57.643Z,51.00
2018-08-24T01:02:00.863Z,51.10
2018-08-24T01:07:09.588Z,51.10
2018-08-24T01:12:14.077Z,51.20
2018-08-24T01:17:22.640Z,51.20
2018-08-24T01:22:25.831Z,51.40
2018-08-24T01:27:29.035Z,51.40
2018-08-24T01:32:32.245Z,51.50
2018-08-24T01:37:35.476Z,51.40
2018-08-24T01:42:38.684Z,51.50
2018-08-24T01:47:41.871Z,51.60
2018-08-24T01:52:45.092Z,51.50
2018-08-24T01:57:48.289Z,51.60
2018-08-24T02:02:51.528Z,51.70
2018-08-24T02:07:54.735Z,51.80
2018-08-24T02:13:03.251Z,51.80
2018-08-24T02:18:11.732Z,51.90
2018-08-24T02:23:15.024Z,52.10
2018-08-24T02:28:18.228Z,52.20
2018-08-24T02:33:21.444Z,52.60
2018-08-24T02:38:24.712Z,52.70
2018-08-24T02:43:27.902Z,52.80
2018-08-24T02:48:31.176Z,53.00
2018-08-24T02:53:34.388Z,53.10
2018-08-24T02:58:37.592Z,53.30
2018-08-24T03:03:40.816Z,53.50
2018-08-24T03:08:44.037Z,53.50
2018-08-24T03:13:47.277Z,53.60
2018-08-24T03:18:50.472Z,53.70
2018-08-24T03:23:53.699Z,53.80
2018-08-24T03:28:56.908Z,53.80
2018-08-24T03:34:00.095Z,53.90
2018-08-24T03:39:03.757Z,53.90
2018-08-24T03:44:06.963Z,54.10
2018-08-24T03:49:10.168Z,54.10
2018-08-24T03:54:15.315Z,54.20
2018-08-24T03:59:18.511Z,54.20
2018-08-24T04:04:21.740Z,54.30
2018-08-24T04:09:24.950Z,54.30
2018-08-24T04:14:28.156Z,54.50
2018-08-24T04:19:31.464Z,54.60
2018-08-24T04:24:34.568Z,54.60
2018-08-24T04:29:37.768Z,54.50
2018-08-24T04:34:40.968Z,55.00
2018-08-24T04:39:44.183Z,54.30
2018-08-24T04:44:47.384Z,54.30
2018-08-24T04:49:50.702Z,55.00
2018-08-24T04:54:53.897Z,54.30
2018-08-24T04:59:57.091Z,54.20
2018-08-24T05:05:00.320Z,54.20
2018-08-24T05:10:03.551Z,54.20
2018-08-24T05:15:06.873Z,54.20
2018-08-24T05:20:10.063Z,55.00
2018-08-24T05:25:13.272Z,54.50
2018-08-24T05:30:16.463Z,54.40
2018-08-24T05:35:19.661Z,54.60
2018-08-24T05:40:22.848Z,54.50
2018-08-24T05:45:26.068Z,54.40
2018-08-24T05:50:29.307Z,54.70
2018-08-24T05:55:32.558Z,55.00
2018-08-24T06:00:36.923Z,54.90
2018-08-24T06:05:45.728Z,54.90
2018-08-24T06:10:48.824Z,54.80
2018-08-24T06:15:52.024Z,54.90
2018-08-24T06:20:55.206Z,55.40
2018-08-24T06:25:58.388Z,55.10
2018-08-24T06:31:01.575Z,55.20
2018-08-24T06:36:04.872Z,55.20
2018-08-24T06:41:08.067Z,55.10
2018-08-24T06:46:11.284Z,55.30
2018-08-24T06:51:14.532Z,55.30
2018-08-24T06:56:17.729Z,55.20
2018-08-24T07:01:20.940Z,55.10
2018-08-24T07:06:24.639Z,55.10
2018-08-24T07:11:27.847Z,55.20
2018-08-24T07:16:31.056Z,55.00
2018-08-24T07:21:34.240Z,55.00
2018-08-24T07:26:37.500Z,54.80
2018-08-24T07:31:40.709Z,54.80
2018-08-24T07:36:43.903Z,55.00
2018-08-24T07:41:47.163Z,54.90
2018-08-24T07:46:50.354Z,55.70
2018-08-24T07:51:53.575Z,54.60
2018-08-24T07:56:56.821Z,54.80
2018-08-24T08:02:00.029Z,54.70
2018-08-24T08:07:03.239Z,55.10
2018-08-24T08:12:06.496Z,55.20
2018-08-24T08:17:09.692Z,55.00
2018-08-24T08:22:13.152Z,54.80
2018-08-24T08:27:16.337Z,54.70
2018-08-24T08:32:19.528Z,54.60
2018-08-24T08:37:23.658Z,54.30
2018-08-24T08:42:27.219Z,54.30
2018-08-24T08:47:30.432Z,54.30
2018-08-24T08:52:33.772Z,54.20
2018-08-24T08:57:36.972Z,54.10
2018-08-24T09:02:40.208Z,53.70
2018-08-24T09:07:43.516Z,53.80
2018-08-24T09:12:46.841Z,53.80
2018-08-24T09:17:55.213Z,53.70
2018-08-24T09:23:03.854Z,53.70
2018-08-24T09:28:12.685Z,53.70
2018-08-24T09:33:15.896Z,53.60
2018-08-24T09:38:19.094Z,53.50
2018-08-24T09:43:27.732Z,53.40
2018-08-24T09:48:35.175Z,53.50
2018-08-24T09:53:43.932Z,53.10
2018-08-24T09:58:47.145Z,53.00
2018-08-24T10:03:55.894Z,52.90
2018-08-24T10:08:59.124Z,52.70
2018-08-24T10:14:02.401Z,52.30
2018-08-24T10:19:05.652Z,52.60
2018-08-24T10:24:09.237Z,52.50
2018-08-24T10:29:12.449Z,52.40
2018-08-24T10:34:15.649Z,52.40
2018-08-24T10:39:18.852Z,52.20
2018-08-24T10:44:22.096Z,52.10
2018-08-24T10:49:25.363Z,52.70
2018-08-24T10:54:28.507Z,52.10
2018-08-24T10:59:31.703Z,51.70
2018-08-24T11:04:34.963Z,51.60
2018-08-24T11:09:38.152Z,51.50
2018-08-24T11:14:41.348Z,51.10
2018-08-24T11:19:44.550Z,50.50
2018-08-24T11:24:47.756Z,50.50
2018-08-24T11:29:50.946Z,50.50
2018-08-24T11:34:54.152Z,50.30
2018-08-24T11:39:57.358Z,50.00
2018-08-24T11:45:00.555Z,50.00
2018-08-24T11:50:03.880Z,49.00
2018-08-24T11:55:07.105Z,49.30
2018-08-24T12:00:10.313Z,49.30
2018-08-24T12:05:13.540Z,49.10
2018-08-24T12:10:16.732Z,47.90
2018-08-24T12:15:19.939Z,47.70
2018-08-24T12:20:23.136Z,47.40
2018-08-24T12:25:26.567Z,47.00
2018-08-24T12:30:29.883Z,46.60
2018-08-24T12:35:33.067Z,46.40
2018-08-24T12:40:36.320Z,45.40
2018-08-24T12:45:39.513Z,45.60
2018-08-24T12:50:42.840Z,45.20
2018-08-24T12:55:46.159Z,45.40
2018-08-24T13:00:49.384Z,45.10
2018-08-24T13:05:52.608Z,43.80
2018-08-24T13:10:56.642Z,41.80
2018-08-24T13:16:00.052Z,41.40
2018-08-24T13:21:03.630Z,41.20
2018-08-24T13:26:06.959Z,41.00
2018-08-24T13:31:10.179Z,41.30
2018-08-24T13:36:13.492Z,41.00
2018-08-24T13:41:16.883Z,40.70
2018-08-24T13:46:21.100Z,41.10
2018-08-24T13:51:24.344Z,41.90
2018-08-24T13:56:27.528Z,41.10
2018-08-24T14:01:30.772Z,41.00
2018-08-24T14:06:33.984Z,40.40
2018-08-24T14:11:37.251Z,40.00
2018-08-24T14:16:40.444Z,40.60
2018-08-24T14:21:43.704Z,40.30
2018-08-24T14:26:46.884Z,40.40
2018-08-24T14:31:50.272Z,40.40
2018-08-24T14:36:53.420Z,39.80
2018-08-24T14:41:56.620Z,39.30
2018-08-24T14:47:00.667Z,39.80
2018-08-24T14:52:04.545Z,39.60
2018-08-24T14:57:07.799Z,39.40
2018-08-24T15:02:11.130Z,38.10
2018-08-24T15:07:14.477Z,35.20
2018-08-24T15:12:18.247Z,33.80
2018-08-24T15:17:21.468Z,33.60
2018-08-24T15:22:24.686Z,33.40
2018-08-24T15:27:27.987Z,32.80
2018-08-24T15:32:31.200Z,31.90
2018-08-24T15:37:34.407Z,32.00
2018-08-24T15:42:37.621Z,31.50
2018-08-24T15:47:40.824Z,31.30
2018-08-24T15:52:44.801Z,31.20
2018-08-24T15:59:57.648Z,31.00
2018-08-24T16:05:00.911Z,32.20
2018-08-24T16:10:04.116Z,32.00
2018-08-24T16:15:07.855Z,32.00
2018-08-24T16:20:12.296Z,32.20
2018-08-24T16:25:15.669Z,33.70
2018-08-24T16:30:18.948Z,35.50
2018-08-24T16:35:22.147Z,36.00
2018-08-24T16:40:25.859Z,35.80
2018-08-24T16:45:30.772Z,36.00
2018-08-24T16:50:34.006Z,35.50
2018-08-24T16:55:37.327Z,36.00
2018-08-24T17:00:40.535Z,36.10
2018-08-24T17:05:44.192Z,36.50
2018-08-24T17:10:47.472Z,36.50
2018-08-24T17:15:50.877Z,37.30
2018-08-24T17:20:54.221Z,37.40
2018-08-24T17:25:57.523Z,37.10
2018-08-24T17:31:00.811Z,37.90
2018-08-24T17:36:04.020Z,38.60
2018-08-24T17:41:07.231Z,39.50
2018-08-24T17:46:10.440Z,40.50
2018-08-24T17:51:13.651Z,40.70
2018-08-24T17:56:16.960Z,39.50
2018-08-24T18:01:20.300Z,39.40
2018-08-24T18:06:23.592Z,39.60
2018-08-24T18:11:26.827Z,39.20
2018-08-24T18:16:30.168Z,39.30
2018-08-24T18:21:33.412Z,39.20
2018-08-24T18:26:36.628Z,39.00
2018-08-24T18:31:39.992Z,38.90
2018-08-24T18:36:43.238Z,38.80
2018-08-24T18:41:46.384Z,38.80
2018-08-24T18:46:49.680Z,38.70
2018-08-24T18:51:52.995Z,38.70
2018-08-24T18:56:56.552Z,38.60
2018-08-24T19:01:59.841Z,38.60
2018-08-24T19:07:03.148Z,38.60
2018-08-24T19:12:38.184Z,38.80
2018-08-24T19:17:46.720Z,38.90
2018-08-24T19:22:49.908Z,39.20
2018-08-24T19:27:58.445Z,39.30
2018-08-24T19:33:02.620Z,39.30
2018-08-24T19:38:05.880Z,39.60
2018-08-24T19:43:09.132Z,39.70
2018-08-24T19:48:17.929Z,39.80
2018-08-24T19:53:21.100Z,39.90
2018-08-24T19:58:29.788Z,40.10
2018-08-24T20:03:33.004Z,40.20
2018-08-24T20:08:41.553Z,40.30
2018-08-24T20:13:44.728Z,40.30
2018-08-24T20:18:47.968Z,40.50
2018-08-24T20:23:51.145Z,40.30
2018-08-24T20:28:54.408Z,40.60
2018-08-24T20:33:57.605Z,40.60
2018-08-24T20:39:00.828Z,40.70
2018-08-24T20:44:04.022Z,40.90
2018-08-24T20:49:07.224Z,40.80
2018-08-24T20:54:10.520Z,40.80
2018-08-24T20:59:13.716Z,40.30
2018-08-24T21:04:17.018Z,41.10
2018-08-24T21:09:20.208Z,41.00
2018-08-24T21:14:23.526Z,41.10
2018-08-24T21:19:26.733Z,41.10
2018-08-24T21:24:29.948Z,41.00
2018-08-24T21:29:33.258Z,41.30
2018-08-24T21:34:36.583Z,41.50
2018-08-24T21:39:39.862Z,41.60
2018-08-24T21:44:43.110Z,41.20
2018-08-24T21:49:46.328Z,41.60
2018-08-24T21:54:49.604Z,41.40
2018-08-24T21:59:52.828Z,41.60
2018-08-24T22:04:56.060Z,41.60
2018-08-24T22:09:59.348Z,41.90
2018-08-24T22:15:02.572Z,42.50
2018-08-24T22:20:06.280Z,41.80
2018-08-24T22:25:09.517Z,41.60
2018-08-24T22:30:12.816Z,41.90
2018-08-24T22:35:16.012Z,42.00
2018-08-24T22:40:19.300Z,42.00
2018-08-24T22:45:23.729Z,42.10
2018-08-24T22:50:26.964Z,42.10
2018-08-24T22:55:30.210Z,42.20
2018-08-24T23:10:11.716Z,42.30
2018-08-24T23:15:14.905Z,42.80
2018-08-24T23:20:18.090Z,42.50
2018-08-24T23:25:21.336Z,42.50
2018-08-24T23:30:24.516Z,42.50
2018-08-24T23:35:27.751Z,42.40
2018-08-24T23:40:30.956Z,42.50
2018-08-24T23:45:34.203Z,42.50
2018-08-24T23:50:37.415Z,42.50
2018-08-24T23:55:40.756Z,42.50
